createdAt,value
2017-11-08T00:00:18.932Z,91.42
2017-11-08T00:00:45.049Z,91.51
2017-11-08T00:01:11.177Z,91.8
2017-11-08T00:01:37.310Z,91.89
2017-11-08T00:02:03.437Z,91.8
2017-11-08T00:02:29.553Z,91.8
2017-11-08T00:02:55.681Z,92.08
2017-11-08T00:03:21.797Z,91.7
2017-11-08T00:03:47.910Z,91.89
2017-11-08T00:04:14.039Z,91.7
2017-11-08T00:04:40.158Z,91.8
2017-11-08T00:05:06.285Z,91.7
2017-11-08T00:05:32.399Z,91.7
2017-11-08T00:05:58.524Z,91.42
2017-11-08T00:06:24.651Z,91.8
2017-11-08T00:06:50.765Z,91.7
2017-11-08T00:07:16.889Z,91.7
2017-11-08T00:07:43.005Z,91.99
2017-11-08T00:08:09.125Z,91.32
2017-11-08T00:08:35.250Z,91.22
2017-11-08T00:09:01.366Z,90.94
2017-11-08T00:09:27.486Z,91.03
2017-11-08T00:09:53.649Z,91.13
2017-11-08T00:10:19.770Z,90.84
2017-11-08T00:10:45.893Z,90.94
2017-11-08T00:11:12.019Z,91.22
2017-11-08T00:11:38.141Z,91.22
2017-11-08T00:12:04.257Z,91.42
2017-11-08T00:12:30.382Z,90.94
2017-11-08T00:12:56.498Z,91.22
2017-11-08T00:13:22.620Z,90.94
2017-11-08T00:13:48.749Z,90.94
2017-11-08T00:14:14.866Z,91.22
2017-11-08T00:14:40.982Z,90.94
2017-11-08T00:15:07.101Z,91.32
2017-11-08T00:15:33.228Z,91.13
2017-11-08T00:15:59.343Z,91.03
2017-11-08T00:16:25.467Z,90.66
2017-11-08T00:16:51.584Z,91.42
2017-11-08T00:17:17.706Z,90.94
2017-11-08T00:17:43.825Z,91.32
2017-11-08T00:18:09.972Z,90.75
2017-11-08T00:18:36.091Z,90.75
2017-11-08T00:19:02.216Z,91.03
2017-11-08T00:19:28.332Z,91.03
2017-11-08T00:19:54.459Z,91.03
2017-11-08T00:20:20.602Z,91.42
2017-11-08T00:20:46.744Z,91.03
2017-11-08T00:21:12.864Z,91.03
2017-11-08T00:21:38.989Z,91.03
2017-11-08T00:22:05.100Z,90.84
2017-11-08T00:22:31.224Z,90.66
2017-11-08T00:22:57.338Z,90.84
2017-11-08T00:23:23.456Z,91.03
2017-11-08T00:23:49.584Z,91.03
2017-11-08T00:24:15.704Z,90.75
2017-11-08T00:24:41.831Z,91.32
2017-11-08T00:25:07.975Z,91.03
2017-11-08T00:25:34.091Z,91.03
2017-11-08T00:26:00.217Z,91.22
2017-11-08T00:26:26.341Z,90.75
2017-11-08T00:26:52.456Z,91.22
2017-11-08T00:27:18.579Z,91.03
2017-11-08T00:27:44.697Z,90.66
2017-11-08T00:28:10.824Z,91.42
2017-11-08T00:28:36.940Z,91.42
2017-11-08T00:29:03.054Z,91.03
2017-11-08T00:29:29.178Z,91.03
2017-11-08T00:29:55.300Z,90.94
2017-11-08T00:30:21.442Z,91.42
2017-11-08T00:30:47.564Z,90.56
2017-11-08T00:31:13.690Z,90.56
2017-11-08T00:31:39.807Z,90.56
2017-11-08T00:32:05.953Z,90.66
2017-11-08T00:32:32.076Z,90.66
2017-11-08T00:32:58.191Z,90.56
2017-11-08T00:33:24.312Z,90.47
2017-11-08T00:33:50.439Z,90.47
2017-11-08T00:34:16.562Z,91.22
2017-11-08T00:34:42.681Z,90.94
2017-11-08T00:35:08.805Z,90.94
2017-11-08T00:35:34.927Z,90.56
2017-11-08T00:36:01.061Z,91.13
2017-11-08T00:36:27.187Z,91.03
2017-11-08T00:36:53.303Z,91.32
2017-11-08T00:37:19.452Z,91.51
2017-11-08T00:37:45.574Z,91.03
2017-11-08T00:38:11.692Z,90.94
2017-11-08T00:38:37.816Z,90.94
2017-11-08T00:39:03.933Z,91.32
2017-11-08T00:39:30.053Z,91.42
2017-11-08T00:39:56.169Z,91.03
2017-11-08T00:40:22.289Z,91.13
2017-11-08T00:40:48.418Z,91.51
2017-11-08T00:41:14.536Z,91.7
2017-11-08T00:41:40.659Z,91.8
2017-11-08T00:42:06.778Z,91.8
2017-11-08T00:42:32.905Z,91.89
2017-11-08T00:42:59.019Z,91.89
2017-11-08T00:43:25.146Z,91.42
2017-11-08T00:43:51.279Z,91.22
2017-11-08T00:44:17.385Z,91.51
2017-11-08T00:44:43.511Z,91.22
2017-11-08T00:45:09.629Z,91.32
2017-11-08T00:45:35.744Z,91.32
2017-11-08T00:46:01.870Z,91.32
2017-11-08T00:46:27.991Z,91.03
2017-11-08T00:46:54.111Z,91.22
2017-11-08T00:47:20.227Z,91.42
2017-11-08T00:47:46.351Z,91.51
2017-11-08T00:48:12.474Z,91.42
2017-11-08T00:48:38.596Z,91.32
2017-11-08T00:49:04.711Z,91.51
2017-11-08T00:49:30.833Z,91.22
2017-11-08T00:49:56.960Z,91.42
2017-11-08T00:50:23.083Z,91.22
2017-11-08T00:50:49.201Z,91.32
2017-11-08T00:51:15.318Z,91.22
2017-11-08T00:51:41.450Z,91.32
2017-11-08T00:52:07.585Z,91.13
2017-11-08T00:52:33.708Z,90.94
2017-11-08T00:52:59.837Z,91.32
2017-11-08T00:53:25.956Z,90.66
2017-11-08T00:53:52.073Z,90.75
2017-11-08T00:54:18.192Z,91.42
2017-11-08T00:54:44.317Z,91.13
2017-11-08T00:55:10.435Z,91.13
2017-11-08T00:55:36.559Z,91.32
2017-11-08T00:56:02.685Z,91.03
2017-11-08T00:56:28.802Z,91.32
2017-11-08T00:56:54.916Z,91.13
2017-11-08T00:57:21.041Z,91.61
2017-11-08T00:57:47.190Z,91.32
2017-11-08T00:58:13.312Z,91.03
2017-11-08T00:58:39.426Z,91.22
2017-11-08T00:59:05.556Z,90.94
2017-11-08T00:59:31.675Z,91.22
2017-11-08T00:59:57.805Z,90.94
2017-11-08T01:00:23.913Z,91.22
2017-11-08T01:00:50.036Z,91.22
2017-11-08T01:01:16.183Z,91.22
2017-11-08T01:01:42.298Z,91.8
2017-11-08T01:02:08.424Z,91.7
2017-11-08T01:02:34.552Z,92.08
2017-11-08T01:03:00.676Z,91.8
2017-11-08T01:03:26.793Z,91.61
2017-11-08T01:03:52.908Z,91.32
2017-11-08T01:04:19.035Z,91.7
2017-11-08T01:04:45.148Z,92.18
2017-11-08T01:05:11.275Z,92.18
2017-11-08T01:05:37.390Z,92.08
2017-11-08T01:06:03.510Z,91.89
2017-11-08T01:06:29.631Z,92.27
2017-11-08T01:06:55.759Z,91.89
2017-11-08T01:07:21.900Z,91.99
2017-11-08T01:07:48.016Z,92.08
2017-11-08T01:08:14.135Z,91.99
2017-11-08T01:08:40.260Z,92.36
2017-11-08T01:09:06.375Z,92.46
2017-11-08T01:09:32.500Z,92.18
2017-11-08T01:09:58.631Z,91.42
2017-11-08T01:10:24.745Z,91.8
2017-11-08T01:10:50.868Z,91.89
2017-11-08T01:11:16.984Z,91.7
2017-11-08T01:11:43.103Z,91.42
2017-11-08T01:12:09.229Z,91.03
2017-11-08T01:12:35.352Z,91.42
2017-11-08T01:13:01.471Z,91.42
2017-11-08T01:13:27.594Z,91.61
2017-11-08T01:13:53.719Z,91.99
2017-11-08T01:14:19.842Z,91.61
2017-11-08T01:14:45.960Z,91.13
2017-11-08T01:15:12.082Z,91.22
2017-11-08T01:15:38.199Z,91.32
2017-11-08T01:16:04.324Z,91.51
2017-11-08T01:16:30.446Z,91.7
2017-11-08T01:16:56.559Z,91.8
2017-11-08T01:17:22.688Z,92.08
2017-11-08T01:17:48.801Z,92.46
2017-11-08T01:18:14.927Z,92.18
2017-11-08T01:18:41.051Z,92.27
2017-11-08T01:19:07.166Z,92.08
2017-11-08T01:19:33.283Z,92.08
2017-11-08T01:19:59.410Z,91.99
2017-11-08T01:20:25.523Z,92.18
2017-11-08T01:20:51.642Z,92.36
2017-11-08T01:21:17.770Z,92.56
2017-11-08T01:21:43.893Z,92.27
2017-11-08T01:22:10.021Z,92.18
2017-11-08T01:22:36.133Z,91.99
2017-11-08T01:23:02.255Z,91.99
2017-11-08T01:23:28.377Z,92.18
2017-11-08T01:23:54.498Z,91.99
2017-11-08T01:24:20.623Z,92.46
2017-11-08T01:24:46.731Z,91.8
2017-11-08T01:25:12.890Z,91.8
2017-11-08T01:25:39.015Z,91.99
2017-11-08T01:26:05.130Z,91.8
2017-11-08T01:26:31.253Z,91.61
2017-11-08T01:26:57.366Z,91.61
2017-11-08T01:27:23.487Z,91.42
2017-11-08T01:27:49.605Z,91.7
2017-11-08T01:28:15.729Z,91.42
2017-11-08T01:28:41.850Z,91.8
2017-11-08T01:29:07.980Z,91.7
2017-11-08T01:29:34.102Z,91.22
2017-11-08T01:30:00.217Z,91.42
2017-11-08T01:30:26.341Z,90.94
2017-11-08T01:30:52.466Z,90.94
2017-11-08T01:31:18.582Z,91.03
2017-11-08T01:31:44.722Z,91.32
2017-11-08T01:32:10.845Z,91.13
2017-11-08T01:32:36.990Z,91.32
2017-11-08T01:33:03.111Z,91.17
2017-11-08T01:33:29.250Z,91.32
2017-11-08T01:33:55.370Z,90.66
2017-11-08T01:34:21.486Z,91.27
2017-11-08T01:34:47.609Z,90.8
2017-11-08T01:35:13.735Z,90.66
2017-11-08T01:35:39.857Z,90.42
2017-11-08T01:36:05.971Z,91.32
2017-11-08T01:36:32.120Z,91.03
2017-11-08T01:36:58.243Z,90.84
2017-11-08T01:37:24.359Z,90.84
2017-11-08T01:37:50.478Z,90.84
2017-11-08T01:38:16.604Z,91.03
2017-11-08T01:38:42.719Z,90.47
2017-11-08T01:39:08.849Z,90.37
2017-11-08T01:39:34.985Z,90.47
2017-11-08T01:40:01.116Z,90.56
2017-11-08T01:40:27.245Z,90.56
2017-11-08T01:40:53.364Z,90.84
2017-11-08T01:41:19.493Z,91.13
2017-11-08T01:41:45.619Z,90.56
2017-11-08T01:42:11.740Z,91.22
2017-11-08T01:42:37.884Z,91.22
2017-11-08T01:43:04.013Z,90.84
2017-11-08T01:43:30.132Z,90.84
2017-11-08T01:43:56.256Z,91.22
2017-11-08T01:44:22.367Z,90.94
2017-11-08T01:44:48.495Z,90.84
2017-11-08T01:45:14.617Z,91.03
2017-11-08T01:45:40.741Z,91.22
2017-11-08T01:46:06.914Z,91.22
2017-11-08T01:46:33.108Z,91.51
2017-11-08T01:46:59.308Z,91.03
2017-11-08T01:47:25.432Z,91.42
2017-11-08T01:47:51.580Z,91.22
2017-11-08T01:48:17.721Z,90.94
2017-11-08T01:48:43.841Z,91.22
2017-11-08T01:49:09.957Z,91.22
2017-11-08T01:49:36.090Z,91.32
2017-11-08T01:50:02.202Z,91.8
2017-11-08T01:50:28.343Z,91.42
2017-11-08T01:50:54.459Z,91.32
2017-11-08T01:51:20.583Z,91.8
2017-11-08T01:51:46.717Z,91.89
2017-11-08T01:52:12.846Z,91.7
2017-11-08T01:52:39.015Z,91.32
2017-11-08T01:53:05.132Z,91.7
2017-11-08T01:53:31.249Z,91.8
2017-11-08T01:53:57.375Z,91.7
2017-11-08T01:54:23.504Z,91.89
2017-11-08T01:54:49.613Z,91.42
2017-11-08T01:55:15.739Z,91.89
2017-11-08T01:55:41.857Z,91.7
2017-11-08T01:56:07.983Z,91.61
2017-11-08T01:56:34.099Z,91.8
2017-11-08T01:57:00.356Z,91.99
2017-11-08T01:57:26.516Z,91.89
2017-11-08T01:57:52.639Z,91.7
2017-11-08T01:58:18.768Z,91.42
2017-11-08T01:58:44.888Z,91.42
2017-11-08T01:59:11.009Z,91.42
2017-11-08T01:59:37.159Z,92.08
2017-11-08T02:00:03.296Z,91.32
2017-11-08T02:00:29.646Z,91.42
2017-11-08T02:00:55.769Z,91.42
2017-11-08T02:01:21.897Z,91.42
2017-11-08T02:01:48.012Z,91.13
2017-11-08T02:02:14.132Z,91.51
2017-11-08T02:02:40.259Z,91.32
2017-11-08T02:03:06.393Z,91.03
2017-11-08T02:03:32.516Z,91.22
2017-11-08T02:03:58.634Z,91.03
2017-11-08T02:04:24.757Z,91.32
2017-11-08T02:04:50.872Z,91.51
2017-11-08T02:05:17.002Z,91.22
2017-11-08T02:05:43.127Z,91.7
2017-11-08T02:06:09.243Z,91.51
2017-11-08T02:06:35.363Z,91.99
2017-11-08T02:07:01.488Z,91.7
2017-11-08T02:07:27.616Z,91.8
2017-11-08T02:07:53.730Z,91.8
2017-11-08T02:08:19.854Z,91.42
2017-11-08T02:08:45.976Z,91.32
2017-11-08T02:09:12.100Z,91.8
2017-11-08T02:09:38.221Z,91.7
2017-11-08T02:10:04.336Z,91.8
2017-11-08T02:10:30.458Z,91.22
2017-11-08T02:10:56.585Z,91.22
2017-11-08T02:11:22.701Z,91.8
2017-11-08T02:11:48.815Z,91.61
2017-11-08T02:12:14.945Z,91.61
2017-11-08T02:12:41.088Z,91.89
2017-11-08T02:13:07.211Z,91.99
2017-11-08T02:13:33.334Z,91.99
2017-11-08T02:13:59.452Z,92.08
2017-11-08T02:14:25.578Z,91.99
2017-11-08T02:14:51.692Z,92.27
2017-11-08T02:15:17.819Z,92.36
2017-11-08T02:15:43.943Z,92.08
2017-11-08T02:16:10.077Z,92.46
2017-11-08T02:16:36.202Z,92.18
2017-11-08T02:17:02.326Z,92.46
2017-11-08T02:17:28.446Z,92.46
2017-11-08T02:17:54.586Z,92.27
2017-11-08T02:18:20.732Z,92.56
2017-11-08T02:18:46.876Z,92.75
2017-11-08T02:19:12.992Z,92.84
2017-11-08T02:19:39.112Z,92.65
2017-11-08T02:20:05.236Z,93.13
2017-11-08T02:20:31.369Z,92.75
2017-11-08T02:20:57.473Z,92.94
2017-11-08T02:21:23.601Z,93.18
2017-11-08T02:21:49.719Z,93.46
2017-11-08T02:22:15.838Z,93.08
2017-11-08T02:22:41.963Z,93.04
2017-11-08T02:23:08.079Z,93.13
2017-11-08T02:23:34.205Z,92.94
2017-11-08T02:24:00.331Z,92.7
2017-11-08T02:24:26.445Z,92.7
2017-11-08T02:24:52.571Z,93.46
2017-11-08T02:25:18.686Z,93.27
2017-11-08T02:25:44.804Z,93.46
2017-11-08T02:26:10.933Z,93.65
2017-11-08T02:26:37.060Z,94.13
2017-11-08T02:27:03.177Z,94.03
2017-11-08T02:27:29.297Z,94.6
2017-11-08T02:27:55.415Z,94.32
2017-11-08T02:28:21.531Z,94.03
2017-11-08T02:28:47.657Z,94.22
2017-11-08T02:29:13.775Z,94.32
2017-11-08T02:29:40.605Z,94.03
2017-11-08T02:30:06.728Z,94.22
2017-11-08T02:30:32.853Z,93.94
2017-11-08T02:30:58.973Z,94.03
2017-11-08T02:31:25.087Z,94.22
2017-11-08T02:31:51.215Z,94.7
2017-11-08T02:32:17.336Z,94.03
2017-11-08T02:32:43.456Z,94.22
2017-11-08T02:33:09.581Z,94.51
2017-11-08T02:33:35.689Z,94.42
2017-11-08T02:34:01.810Z,94.7
2017-11-08T02:34:27.931Z,94.89
2017-11-08T02:34:54.054Z,94.89
2017-11-08T02:35:20.172Z,94.98
2017-11-08T02:35:46.300Z,95.08
2017-11-08T02:36:12.416Z,95.08
2017-11-08T02:36:38.582Z,94.79
2017-11-08T02:37:04.699Z,95.17
2017-11-08T02:37:30.833Z,94.98
2017-11-08T02:37:56.948Z,94.89
2017-11-08T02:38:23.066Z,95.08
2017-11-08T02:38:49.185Z,94.98
2017-11-08T02:39:15.308Z,95.08
2017-11-08T02:39:41.429Z,95.08
2017-11-08T02:40:07.544Z,94.98
2017-11-08T02:40:33.671Z,95.17
2017-11-08T02:40:59.787Z,95.17
2017-11-08T02:41:25.906Z,95.08
2017-11-08T02:41:52.043Z,94.98
2017-11-08T02:42:18.166Z,95.17
2017-11-08T02:42:44.292Z,94.89
2017-11-08T02:43:10.413Z,94.89
2017-11-08T02:43:36.555Z,94.65
2017-11-08T02:44:02.677Z,94.46
2017-11-08T02:44:28.795Z,94.65
2017-11-08T02:44:54.916Z,93.98
2017-11-08T02:45:21.045Z,94.08
2017-11-08T02:45:47.160Z,93.89
2017-11-08T02:46:13.277Z,93.6
2017-11-08T02:46:39.406Z,93.51
2017-11-08T02:47:05.520Z,93.51
2017-11-08T02:47:31.630Z,93.32
2017-11-08T02:47:57.752Z,93.41
2017-11-08T02:48:23.870Z,93.41
2017-11-08T02:48:49.995Z,93.32
2017-11-08T02:49:16.109Z,93.32
2017-11-08T02:49:42.236Z,93.7
2017-11-08T02:50:08.380Z,93.41
2017-11-08T02:50:34.496Z,93.04
2017-11-08T02:51:00.617Z,93.13
2017-11-08T02:51:26.749Z,93.13
2017-11-08T02:51:52.865Z,92.36
2017-11-08T02:52:18.993Z,92.94
2017-11-08T02:52:45.118Z,92.75
2017-11-08T02:53:11.248Z,92.94
2017-11-08T02:53:37.368Z,93.41
2017-11-08T02:54:03.528Z,92.56
2017-11-08T02:54:29.652Z,92.84
2017-11-08T02:54:55.769Z,92.94
2017-11-08T02:55:21.889Z,93.04
2017-11-08T02:55:48.012Z,92.46
2017-11-08T02:56:14.173Z,92.46
2017-11-08T02:56:40.298Z,92.94
2017-11-08T02:57:06.438Z,93.04
2017-11-08T02:57:32.563Z,93.04
2017-11-08T02:57:58.689Z,93.51
2017-11-08T02:58:24.804Z,93.51
2017-11-08T02:58:50.932Z,93.32
2017-11-08T02:59:17.053Z,93.51
2017-11-08T02:59:43.187Z,93.41
2017-11-08T03:00:09.319Z,93.32
2017-11-08T03:00:35.432Z,93.7
2017-11-08T03:01:01.555Z,93.32
2017-11-08T03:01:27.668Z,93.7
2017-11-08T03:01:53.815Z,93.32
2017-11-08T03:02:19.930Z,93.51
2017-11-08T03:02:46.057Z,93.41
2017-11-08T03:03:12.173Z,93.7
2017-11-08T03:03:38.298Z,93.41
2017-11-08T03:04:04.422Z,93.23
2017-11-08T03:04:30.546Z,93.04
2017-11-08T03:04:56.657Z,93.13
2017-11-08T03:05:22.779Z,92.65
2017-11-08T03:05:48.904Z,93.23
2017-11-08T03:06:15.024Z,92.75
2017-11-08T03:06:41.138Z,93.23
2017-11-08T03:07:07.266Z,93.13
2017-11-08T03:07:33.383Z,93.04
2017-11-08T03:07:59.507Z,92.75
2017-11-08T03:08:25.626Z,93.04
2017-11-08T03:08:51.754Z,92.27
2017-11-08T03:09:17.870Z,92.75
2017-11-08T03:09:44.025Z,92.36
2017-11-08T03:10:10.133Z,92.18
2017-11-08T03:10:36.261Z,92.18
2017-11-08T03:11:02.380Z,92.18
2017-11-08T03:11:28.501Z,92.84
2017-11-08T03:11:54.623Z,92.75
2017-11-08T03:12:20.745Z,92.65
2017-11-08T03:12:46.861Z,92.65
2017-11-08T03:13:12.981Z,92.65
2017-11-08T03:13:39.103Z,92.56
2017-11-08T03:14:05.220Z,92.75
2017-11-08T03:14:31.365Z,92.94
2017-11-08T03:14:57.485Z,92.27
2017-11-08T03:15:23.604Z,92.18
2017-11-08T03:15:49.729Z,92.27
2017-11-08T03:16:15.846Z,92.27
2017-11-08T03:16:41.971Z,92.36
2017-11-08T03:17:08.104Z,92.94
2017-11-08T03:17:34.236Z,92.36
2017-11-08T03:18:00.359Z,92.75
2017-11-08T03:18:26.472Z,92.36
2017-11-08T03:18:52.591Z,92.75
2017-11-08T03:19:18.714Z,92.08
2017-11-08T03:19:44.831Z,91.99
2017-11-08T03:20:10.952Z,92.08
2017-11-08T03:20:37.073Z,92.27
2017-11-08T03:21:03.202Z,91.99
2017-11-08T03:21:29.337Z,91.99
2017-11-08T03:21:55.458Z,92.08
2017-11-08T03:22:21.579Z,92.36
2017-11-08T03:22:47.704Z,92.18
2017-11-08T03:23:13.826Z,91.89
2017-11-08T03:23:39.944Z,92.08
2017-11-08T03:24:06.067Z,92.46
2017-11-08T03:24:32.188Z,92.27
2017-11-08T03:24:58.310Z,92.36
2017-11-08T03:25:24.424Z,92.08
2017-11-08T03:25:50.551Z,91.99
2017-11-08T03:26:16.669Z,92.27
2017-11-08T03:26:42.787Z,92.36
2017-11-08T03:27:08.911Z,92.36
2017-11-08T03:27:35.036Z,92.27
2017-11-08T03:28:01.152Z,93.04
2017-11-08T03:28:27.274Z,92.84
2017-11-08T03:28:53.396Z,92.56
2017-11-08T03:29:19.529Z,92.94
2017-11-08T03:29:45.643Z,92.75
2017-11-08T03:30:11.761Z,92.56
2017-11-08T03:30:37.894Z,92.75
2017-11-08T03:31:04.010Z,92.75
2017-11-08T03:31:30.124Z,93.04
2017-11-08T03:31:56.252Z,92.94
2017-11-08T03:32:22.371Z,92.94
2017-11-08T03:32:48.482Z,92.75
2017-11-08T03:33:14.607Z,93.23
2017-11-08T03:33:40.722Z,92.84
2017-11-08T03:34:06.841Z,92.75
2017-11-08T03:34:32.963Z,92.65
2017-11-08T03:34:59.089Z,92.84
2017-11-08T03:35:25.208Z,92.75
2017-11-08T03:35:51.353Z,92.94
2017-11-08T03:36:17.468Z,93.04
2017-11-08T03:36:43.594Z,93.13
2017-11-08T03:37:09.722Z,93.13
2017-11-08T03:37:35.839Z,92.75
2017-11-08T03:38:01.965Z,92.84
2017-11-08T03:38:28.076Z,92.94
2017-11-08T03:38:54.195Z,92.84
2017-11-08T03:39:20.318Z,92.94
2017-11-08T03:39:46.440Z,92.84
2017-11-08T03:40:12.563Z,92.94
2017-11-08T03:40:38.700Z,93.04
2017-11-08T03:41:04.840Z,92.75
2017-11-08T03:41:30.968Z,92.94
2017-11-08T03:41:57.084Z,92.75
2017-11-08T03:42:23.211Z,92.36
2017-11-08T03:42:49.339Z,93.32
2017-11-08T03:43:15.452Z,92.36
2017-11-08T03:43:41.578Z,93.04
2017-11-08T03:44:07.693Z,93.23
2017-11-08T03:44:33.815Z,93.23
2017-11-08T03:44:59.951Z,92.94
2017-11-08T03:45:26.087Z,93.04
2017-11-08T03:45:52.205Z,93.6
2017-11-08T03:46:18.347Z,92.84
2017-11-08T03:46:44.469Z,92.94
2017-11-08T03:47:10.615Z,93.7
2017-11-08T03:47:36.740Z,93.6
2017-11-08T03:48:02.859Z,93.32
2017-11-08T03:48:28.973Z,93.41
2017-11-08T03:48:55.102Z,93.41
2017-11-08T03:49:21.220Z,93.13
2017-11-08T03:49:47.344Z,92.75
2017-11-08T03:50:13.464Z,93.04
2017-11-08T03:50:39.584Z,93.32
2017-11-08T03:51:05.702Z,93.32
2017-11-08T03:51:31.820Z,93.51
2017-11-08T03:51:57.946Z,93.51
2017-11-08T03:52:24.060Z,93.51
2017-11-08T03:52:50.185Z,93.51
2017-11-08T03:53:16.310Z,93.23
2017-11-08T03:53:42.425Z,93.51
2017-11-08T03:54:08.577Z,93.32
2017-11-08T03:54:34.692Z,93.32
2017-11-08T03:55:00.817Z,93.51
2017-11-08T03:55:26.941Z,93.41
2017-11-08T03:55:53.058Z,93.7
2017-11-08T03:56:19.185Z,94.18
2017-11-08T03:56:45.301Z,93.89
2017-11-08T03:57:11.425Z,93.98
2017-11-08T03:57:37.543Z,94.18
2017-11-08T03:58:03.662Z,94.08
2017-11-08T03:58:29.788Z,94.37
2017-11-08T03:58:55.911Z,94.46
2017-11-08T03:59:22.028Z,94.46
2017-11-08T03:59:48.153Z,93.89
2017-11-08T04:00:14.275Z,93.98
2017-11-08T04:00:40.407Z,94.18
2017-11-08T04:01:06.530Z,93.89
2017-11-08T04:01:32.668Z,94.08
2017-11-08T04:01:58.793Z,94.08
2017-11-08T04:02:24.914Z,93.89
2017-11-08T04:02:51.033Z,93.98
2017-11-08T04:03:17.180Z,93.98
2017-11-08T04:03:43.299Z,93.98
2017-11-08T04:04:09.417Z,93.98
2017-11-08T04:04:35.543Z,93.79
2017-11-08T04:05:01.678Z,93.41
2017-11-08T04:05:27.794Z,93.41
2017-11-08T04:05:53.921Z,93.6
2017-11-08T04:06:20.038Z,93.41
2017-11-08T04:06:46.168Z,93.32
2017-11-08T04:07:12.291Z,93.32
2017-11-08T04:07:38.404Z,93.32
2017-11-08T04:08:04.528Z,93.32
2017-11-08T04:08:30.647Z,93.41
2017-11-08T04:08:56.794Z,93.51
2017-11-08T04:09:22.912Z,93.32
2017-11-08T04:09:49.032Z,93.13
2017-11-08T04:10:15.170Z,93.32
2017-11-08T04:10:41.297Z,93.23
2017-11-08T04:11:07.406Z,93.41
2017-11-08T04:11:33.528Z,93.41
2017-11-08T04:11:59.660Z,93.04
2017-11-08T04:12:25.780Z,93.32
2017-11-08T04:12:51.904Z,93.41
2017-11-08T04:13:18.019Z,93.6
2017-11-08T04:13:44.143Z,93.7
2017-11-08T04:14:10.265Z,93.6
2017-11-08T04:14:36.380Z,93.04
2017-11-08T04:15:02.503Z,93.23
2017-11-08T04:15:28.632Z,93.51
2017-11-08T04:15:54.747Z,93.79
2017-11-08T04:16:20.871Z,93.7
2017-11-08T04:16:46.989Z,93.98
2017-11-08T04:17:13.119Z,94.08
2017-11-08T04:17:39.256Z,94.46
2017-11-08T04:18:05.372Z,94.32
2017-11-08T04:18:31.519Z,94.18
2017-11-08T04:18:57.642Z,93.89
2017-11-08T04:19:23.767Z,94.32
2017-11-08T04:19:49.879Z,94.32
2017-11-08T04:20:16.003Z,94.56
2017-11-08T04:20:42.119Z,94.6
2017-11-08T04:21:08.246Z,94.32
2017-11-08T04:21:34.389Z,94.79
2017-11-08T04:22:00.509Z,94.6
2017-11-08T04:22:26.653Z,95.12
2017-11-08T04:22:52.768Z,95.12
2017-11-08T04:23:18.888Z,94.98
2017-11-08T04:23:45.019Z,94.98
2017-11-08T04:24:11.136Z,95.17
2017-11-08T04:24:37.252Z,95.36
2017-11-08T04:25:03.371Z,95.17
2017-11-08T04:25:29.497Z,95.27
2017-11-08T04:25:55.612Z,94.98
2017-11-08T04:26:21.759Z,95.84
2017-11-08T04:26:47.877Z,95.08
2017-11-08T04:27:14.037Z,95.46
2017-11-08T04:27:40.117Z,95.65
2017-11-08T04:28:06.246Z,95.65
2017-11-08T04:28:32.363Z,95.75
2017-11-08T04:28:58.483Z,95.79
2017-11-08T04:29:24.605Z,95.46
2017-11-08T04:29:50.729Z,95.84
2017-11-08T04:30:16.852Z,95.84
2017-11-08T04:30:42.973Z,95.75
2017-11-08T04:31:09.086Z,95.65
2017-11-08T04:31:35.205Z,95.46
2017-11-08T04:32:01.335Z,95.51
2017-11-08T04:32:27.474Z,95.6
2017-11-08T04:32:53.592Z,95.56
2017-11-08T04:33:19.721Z,95.7
2017-11-08T04:33:45.843Z,95.84
2017-11-08T04:34:11.958Z,95.36
2017-11-08T04:34:38.085Z,95.46
2017-11-08T04:35:04.205Z,94.93
2017-11-08T04:35:30.323Z,95.17
2017-11-08T04:35:56.444Z,95.32
2017-11-08T04:36:22.565Z,94.84
2017-11-08T04:36:48.684Z,94.84
2017-11-08T04:37:14.800Z,94.89
2017-11-08T04:37:40.926Z,95.08
2017-11-08T04:38:07.043Z,95.46
2017-11-08T04:38:33.172Z,95.08
2017-11-08T04:38:59.308Z,94.79
2017-11-08T04:39:25.440Z,95.08
2017-11-08T04:39:51.568Z,94.98
2017-11-08T04:40:17.698Z,95.22
2017-11-08T04:40:43.822Z,94.93
2017-11-08T04:41:09.940Z,94.93
2017-11-08T04:41:36.065Z,94.93
2017-11-08T04:42:02.182Z,95.22
2017-11-08T04:42:28.330Z,95.03
2017-11-08T04:42:54.450Z,95.03
2017-11-08T04:43:20.586Z,95.12
2017-11-08T04:43:46.718Z,95.08
2017-11-08T04:44:12.854Z,95.12
2017-11-08T04:44:38.978Z,94.93
2017-11-08T04:45:05.124Z,95.22
2017-11-08T04:45:31.260Z,95.03
2017-11-08T04:45:57.381Z,95.12
2017-11-08T04:46:23.496Z,95.22
2017-11-08T04:46:49.619Z,95.12
2017-11-08T04:47:15.737Z,95.03
2017-11-08T04:47:41.864Z,94.93
2017-11-08T04:48:07.980Z,95.03
2017-11-08T04:48:34.100Z,94.74
2017-11-08T04:49:00.225Z,94.93
2017-11-08T04:49:26.341Z,94.84
2017-11-08T04:49:52.467Z,95.32
2017-11-08T04:50:18.585Z,95.03
2017-11-08T04:50:44.702Z,95.32
2017-11-08T04:51:10.838Z,94.84
2017-11-08T04:51:36.961Z,94.84
2017-11-08T04:52:03.083Z,94.84
2017-11-08T04:52:29.207Z,94.65
2017-11-08T04:52:55.328Z,94.93
2017-11-08T04:53:21.453Z,94.84
2017-11-08T04:53:47.573Z,95.22
2017-11-08T04:54:13.687Z,94.93
2017-11-08T04:54:39.806Z,94.93
2017-11-08T04:55:05.935Z,94.46
2017-11-08T04:55:32.051Z,94.56
2017-11-08T04:55:58.171Z,94.37
2017-11-08T04:56:24.292Z,94.56
2017-11-08T04:56:50.411Z,94.65
2017-11-08T04:57:16.538Z,94.08
2017-11-08T04:57:42.659Z,94.37
2017-11-08T04:58:09.116Z,94.27
2017-11-08T04:58:35.241Z,94.27
2017-11-08T04:59:01.367Z,94.18
2017-11-08T04:59:27.482Z,94.56
2017-11-08T04:59:53.625Z,94.27
2017-11-08T05:00:19.742Z,94.08
2017-11-08T05:00:45.869Z,93.89
2017-11-08T05:01:11.986Z,93.98
2017-11-08T05:01:38.111Z,93.79
2017-11-08T05:02:04.229Z,93.89
2017-11-08T05:02:30.348Z,93.6
2017-11-08T05:02:56.472Z,93.41
2017-11-08T05:03:22.597Z,93.79
2017-11-08T05:03:48.719Z,93.98
2017-11-08T05:04:14.842Z,94.08
2017-11-08T05:04:40.957Z,93.89
2017-11-08T05:05:07.083Z,93.79
2017-11-08T05:05:33.201Z,93.89
2017-11-08T05:05:59.317Z,93.6
2017-11-08T05:06:25.439Z,93.89
2017-11-08T05:06:51.579Z,93.7
2017-11-08T05:07:17.703Z,93.89
2017-11-08T05:07:43.828Z,93.7
2017-11-08T05:08:09.946Z,93.6
2017-11-08T05:08:36.066Z,93.89
2017-11-08T05:09:02.193Z,93.89
2017-11-08T05:09:28.308Z,93.98
2017-11-08T05:09:54.431Z,94.08
2017-11-08T05:10:20.550Z,94.37
2017-11-08T05:10:46.676Z,94.37
2017-11-08T05:11:12.793Z,94.08
2017-11-08T05:11:38.918Z,94.18
2017-11-08T05:12:05.040Z,94.18
2017-11-08T05:12:31.158Z,94.56
2017-11-08T05:12:57.300Z,94.84
2017-11-08T05:13:23.421Z,95.03
2017-11-08T05:13:49.535Z,94.93
2017-11-08T05:14:15.659Z,94.65
2017-11-08T05:14:41.788Z,95.12
2017-11-08T05:15:07.930Z,94.65
2017-11-08T05:15:34.048Z,94.93
2017-11-08T05:16:00.168Z,94.74
2017-11-08T05:16:26.286Z,94.74
2017-11-08T05:16:52.413Z,94.84
2017-11-08T05:17:18.529Z,95.22
2017-11-08T05:17:44.648Z,95.12
2017-11-08T05:18:10.766Z,94.93
2017-11-08T05:18:36.925Z,95.32
2017-11-08T05:19:03.045Z,95.22
2017-11-08T05:19:29.172Z,95.79
2017-11-08T05:19:55.296Z,95.17
2017-11-08T05:20:21.411Z,94.93
2017-11-08T05:20:47.543Z,95.12
2017-11-08T05:21:13.667Z,95.41
2017-11-08T05:21:39.787Z,95.89
2017-11-08T05:22:05.913Z,95.46
2017-11-08T05:22:32.032Z,95.51
2017-11-08T05:22:58.145Z,95.41
2017-11-08T05:23:24.264Z,95.6
2017-11-08T05:23:50.387Z,95.32
2017-11-08T05:24:16.527Z,95.03
2017-11-08T05:24:42.655Z,95.03
2017-11-08T05:25:08.775Z,95.12
2017-11-08T05:25:34.895Z,95.22
2017-11-08T05:26:01.013Z,94.89
2017-11-08T05:26:27.137Z,94.93
2017-11-08T05:26:53.254Z,94.7
2017-11-08T05:27:19.384Z,95.75
2017-11-08T05:27:45.508Z,95.27
2017-11-08T05:28:11.623Z,95.36
2017-11-08T05:28:37.740Z,95.84
2017-11-08T05:29:03.884Z,96.31
2017-11-08T05:29:30.006Z,96.03
2017-11-08T05:29:56.123Z,96.79
2017-11-08T05:30:22.271Z,97.17
2017-11-08T05:30:48.391Z,97.17
2017-11-08T05:31:14.507Z,97.17
2017-11-08T05:31:40.652Z,97.36
2017-11-08T05:32:06.767Z,97.17
2017-11-08T05:32:32.892Z,97.93
2017-11-08T05:32:59.013Z,97.64
2017-11-08T05:33:25.128Z,97.36
2017-11-08T05:33:51.253Z,97.45
2017-11-08T05:34:17.392Z,97.64
2017-11-08T05:34:43.537Z,97.64
2017-11-08T05:35:09.655Z,97.74
2017-11-08T05:35:35.781Z,97.36
2017-11-08T05:36:01.910Z,97.93
2017-11-08T05:36:28.026Z,97.17
2017-11-08T05:36:54.135Z,97.45
2017-11-08T05:37:20.255Z,96.98
2017-11-08T05:37:46.374Z,96.98